createdAt,value
2022-07-27T00:04:20.619Z,20.80
2022-07-27T00:09:24.033Z,20.50
2022-07-27T00:14:26.735Z,20.60
2022-07-27T00:19:41.741Z,20.50
2022-07-27T00:25:09.022Z,20.30
2022-07-27T00:30:19.781Z,20.20
2022-07-27T00:35:35.856Z,20.20
2022-07-27T00:46:30.655Z,19.20
2022-07-27T00:52:08.803Z,18.70
2022-07-27T00:57:59.748Z,18.50
2022-07-27T01:03:29.718Z,18.20
2022-07-27T01:09:00.085Z,18.20
2022-07-27T01:14:43.697Z,18.20
2022-07-27T01:26:43.255Z,18.20
2022-07-27T01:32:48.311Z,18.30
2022-07-27T01:38:25.132Z,18.40
2022-07-27T01:43:51.385Z,18.50
2022-07-27T02:00:30.547Z,18.70
2022-07-27T02:05:52.839Z,18.60
2022-07-27T02:11:14.178Z,18.60
2022-07-27T02:16:28.995Z,18.60
2022-07-27T02:21:37.089Z,18.70
2022-07-27T02:27:08.064Z,18.90
2022-07-27T02:32:18.878Z,18.90
2022-07-27T02:37:45.551Z,18.90
2022-07-27T02:43:02.043Z,18.90
2022-07-27T02:48:14.087Z,19.00
2022-07-27T02:53:18.894Z,18.90
2022-07-27T02:58:27.961Z,18.90
2022-07-27T03:03:36.678Z,18.70
2022-07-27T03:08:40.471Z,18.70
2022-07-27T03:13:43.167Z,18.50
2022-07-27T03:18:49.591Z,18.50
2022-07-27T03:23:52.613Z,18.60
2022-07-27T03:28:55.500Z,18.50
2022-07-27T03:34:00.816Z,18.40
2022-07-27T03:39:06.272Z,18.50
2022-07-27T03:44:09.137Z,18.60
2022-07-27T03:49:14.138Z,18.50
2022-07-27T03:54:17.974Z,18.50
2022-07-27T03:59:20.776Z,18.40
2022-07-27T04:04:24.780Z,18.50
2022-07-27T04:09:28.499Z,18.50
2022-07-27T04:14:34.167Z,18.60
2022-07-27T04:19:38.599Z,18.60
2022-07-27T04:24:41.369Z,18.40
2022-07-27T04:29:44.234Z,18.30
2022-07-27T04:34:48.451Z,18.40
2022-07-27T04:39:51.157Z,18.40
2022-07-27T04:44:54.206Z,18.40
2022-07-27T04:49:58.538Z,18.40
2022-07-27T04:55:01.300Z,18.40
2022-07-27T05:00:05.707Z,18.40
2022-07-27T05:05:10.726Z,18.70
2022-07-27T05:10:19.476Z,18.70
2022-07-27T05:15:22.840Z,18.60
2022-07-27T05:20:27.115Z,18.80
2022-07-27T05:25:29.884Z,18.80
2022-07-27T05:30:32.806Z,19.00
2022-07-27T05:35:37.974Z,19.00
2022-07-27T05:40:41.262Z,18.80
2022-07-27T05:45:44.321Z,19.00
2022-07-27T05:50:48.470Z,19.20
2022-07-27T05:55:58.000Z,19.40
2022-07-27T06:01:02.428Z,19.70
2022-07-27T06:06:24.681Z,19.80
2022-07-27T06:11:27.500Z,19.90
2022-07-27T06:16:31.503Z,20.10
2022-07-27T06:21:35.547Z,20.30
2022-07-27T06:26:38.594Z,20.30
2022-07-27T06:31:41.347Z,20.20
2022-07-27T06:36:48.731Z,20.20
2022-07-27T06:41:56.196Z,20.40
2022-07-27T06:47:00.789Z,20.70
2022-07-27T06:52:05.294Z,20.90
2022-07-27T06:57:08.137Z,20.80
2022-07-27T07:02:10.877Z,21.00
2022-07-27T07:07:15.045Z,21.00
2022-07-27T07:12:18.390Z,20.90
2022-07-27T07:17:21.322Z,20.70
2022-07-27T07:22:25.545Z,21.00
2022-07-27T07:27:28.336Z,21.40
2022-07-27T07:32:33.531Z,21.70
2022-07-27T07:37:38.071Z,21.60
2022-07-27T07:42:55.199Z,21.50
2022-07-27T07:47:58.831Z,21.60
2022-07-27T07:53:03.048Z,21.70
2022-07-27T07:58:05.736Z,22.00
2022-07-27T08:03:08.770Z,22.10
2022-07-27T08:08:12.899Z,22.00
2022-07-27T08:13:21.204Z,21.50
2022-07-27T08:18:24.510Z,21.60
2022-07-27T08:23:28.602Z,21.50
2022-07-27T08:28:35.645Z,21.50
2022-07-27T08:33:40.987Z,21.30
2022-07-27T08:38:45.189Z,20.80
2022-07-27T08:43:49.740Z,20.90
2022-07-27T08:48:53.718Z,21.10
2022-07-27T08:53:58.593Z,21.80
2022-07-27T08:59:01.387Z,22.40
2022-07-27T09:04:04.129Z,23.10
2022-07-27T09:09:08.884Z,23.50
2022-07-27T09:14:14.322Z,23.10
2022-07-27T09:19:17.033Z,23.20
2022-07-27T09:24:46.880Z,23.40
2022-07-27T09:29:44.761Z,23.00
2022-07-27T09:34:47.471Z,23.10
2022-07-27T09:39:52.363Z,22.50
2022-07-27T09:44:55.199Z,22.70
2022-07-27T09:50:18.120Z,23.10
2022-07-27T09:55:22.235Z,23.10
2022-07-27T10:00:25.428Z,23.80
2022-07-27T10:05:28.150Z,24.00
2022-07-27T10:10:32.642Z,24.00
2022-07-27T10:15:35.877Z,24.70
2022-07-27T10:20:42.211Z,25.90
2022-07-27T10:26:16.891Z,27.30
2022-07-27T10:31:22.412Z,26.40
2022-07-27T10:36:45.331Z,27.50
2022-07-27T10:41:49.455Z,29.20
2022-07-27T10:46:55.246Z,27.80
2022-07-27T10:52:00.089Z,26.60
2022-07-27T10:57:06.528Z,25.70
2022-07-27T11:02:11.141Z,25.50
2022-07-27T11:07:24.828Z,27.80
2022-07-27T11:12:31.046Z,28.80
2022-07-27T11:23:49.973Z,28.80
2022-07-27T11:28:29.311Z,29.90
2022-07-27T11:33:32.170Z,30.90
2022-07-27T11:38:47.465Z,31.20
2022-07-27T11:43:51.559Z,30.60
2022-07-27T11:49:07.883Z,29.80
2022-07-27T11:54:13.290Z,30.80
2022-07-27T11:59:20.209Z,29.50
2022-07-27T12:04:25.362Z,27.70
2022-07-27T12:09:36.825Z,27.50
2022-07-27T12:14:45.853Z,27.40
2022-07-27T12:19:54.409Z,27.30
2022-07-27T12:24:58.383Z,28.20
2022-07-27T12:30:07.986Z,30.00
2022-07-27T12:35:25.703Z,32.00
2022-07-27T12:40:29.712Z,35.30
2022-07-27T12:45:36.085Z,38.30
2022-07-27T12:50:40.437Z,37.50
2022-07-27T12:55:44.642Z,37.70
2022-07-27T13:00:49.321Z,38.90
2022-07-27T13:05:52.138Z,38.10
2022-07-27T13:10:59.853Z,38.80
2022-07-27T13:16:04.375Z,39.90
2022-07-27T13:21:07.291Z,37.80
2022-07-27T13:26:10.161Z,38.50
2022-07-27T13:31:14.913Z,38.80
2022-07-27T13:36:17.703Z,39.10
2022-07-27T13:41:20.492Z,38.00
2022-07-27T13:46:24.685Z,33.30
2022-07-27T13:51:27.861Z,31.00
2022-07-27T13:56:32.456Z,30.00
2022-07-27T14:01:38.160Z,30.50
2022-07-27T14:06:43.941Z,30.30
2022-07-27T14:11:51.084Z,31.40
2022-07-27T14:16:57.270Z,33.50
2022-07-27T14:21:59.987Z,32.30
2022-07-27T14:27:02.751Z,31.50
2022-07-27T14:32:07.485Z,32.10
2022-07-27T14:37:10.766Z,34.00
2022-07-27T14:42:13.515Z,34.70
2022-07-27T14:47:17.560Z,34.60
2022-07-27T14:52:20.280Z,30.90
2022-07-27T14:57:22.952Z,28.30
2022-07-27T15:02:27.085Z,28.70
2022-07-27T15:07:29.784Z,31.30
2022-07-27T15:12:36.188Z,31.70
2022-07-27T15:17:42.025Z,30.10
2022-07-27T15:22:45.532Z,31.90
2022-07-27T15:27:48.309Z,32.60
2022-07-27T15:32:52.461Z,32.80
2022-07-27T15:37:55.194Z,31.50
2022-07-27T15:42:57.878Z,30.10
2022-07-27T15:48:01.941Z,29.10
2022-07-27T15:53:05.573Z,28.50
2022-07-27T15:58:09.228Z,28.60
2022-07-27T16:03:23.006Z,30.30
2022-07-27T16:08:30.946Z,32.00
2022-07-27T16:13:34.225Z,31.80
2022-07-27T16:18:39.162Z,32.60
2022-07-27T16:23:42.119Z,33.70
2022-07-27T16:28:47.312Z,31.80
2022-07-27T16:33:55.083Z,29.20
2022-07-27T16:38:58.000Z,27.70
2022-07-27T16:44:00.937Z,28.10
2022-07-27T16:49:05.570Z,30.10
2022-07-27T16:54:09.266Z,31.80
2022-07-27T16:59:12.299Z,32.60
2022-07-27T17:04:16.826Z,31.10
2022-07-27T17:09:19.601Z,30.30
2022-07-27T17:14:22.347Z,30.40
2022-07-27T17:19:26.957Z,30.70
2022-07-27T17:24:29.765Z,30.60
2022-07-27T17:29:32.577Z,30.80
2022-07-27T17:34:41.305Z,30.90
2022-07-27T17:39:44.361Z,30.80
2022-07-27T17:44:47.141Z,29.70
2022-07-27T17:49:51.241Z,28.40
2022-07-27T17:54:54.005Z,27.50
2022-07-27T17:59:57.261Z,26.80
2022-07-27T18:05:01.316Z,26.80
2022-07-27T18:10:05.061Z,26.80
2022-07-27T18:15:26.991Z,26.60
2022-07-27T18:20:31.747Z,26.50
2022-07-27T18:25:34.588Z,26.10
2022-07-27T18:30:37.670Z,25.50
2022-07-27T18:35:41.739Z,24.90
2022-07-27T18:40:46.450Z,24.30
2022-07-27T18:45:49.224Z,23.70
2022-07-27T18:50:53.856Z,23.10
2022-07-27T18:55:56.987Z,22.30
2022-07-27T19:01:00.219Z,21.80
2022-07-27T19:06:05.536Z,21.40
2022-07-27T19:11:08.823Z,21.00
2022-07-27T19:16:11.503Z,20.70
2022-07-27T19:21:17.641Z,20.40
2022-07-27T19:26:22.346Z,20.30
2022-07-27T19:31:26.033Z,20.00
2022-07-27T19:36:37.988Z,19.70
2022-07-27T19:41:40.771Z,19.50
2022-07-27T19:46:46.080Z,19.30
2022-07-27T19:51:54.108Z,19.10
2022-07-27T19:56:56.896Z,18.90
2022-07-27T20:01:59.882Z,18.80
2022-07-27T20:07:06.913Z,18.70
2022-07-27T20:12:09.972Z,18.60
2022-07-27T20:17:12.743Z,18.50
2022-07-27T20:22:16.997Z,18.50
2022-07-27T20:27:20.309Z,18.20
2022-07-27T20:32:23.107Z,18.00
2022-07-27T20:37:27.578Z,17.90
2022-07-27T20:42:30.353Z,17.70
2022-07-27T20:47:34.832Z,17.60
2022-07-27T20:52:39.818Z,17.40
2022-07-27T20:57:42.674Z,17.30
2022-07-27T21:02:45.611Z,17.20
2022-07-27T21:07:49.747Z,17.20
2022-07-27T21:12:53.004Z,17.30
2022-07-27T21:17:55.724Z,17.10
2022-07-27T21:23:17.513Z,16.90
2022-07-27T21:28:25.007Z,16.70
2022-07-27T21:33:28.073Z,16.70
2022-07-27T21:38:32.403Z,16.60
2022-07-27T21:43:35.554Z,16.50
2022-07-27T21:48:38.497Z,16.40
2022-07-27T21:53:42.686Z,16.20
2022-07-27T21:58:45.933Z,16.10
2022-07-27T22:03:48.753Z,15.90
2022-07-27T22:08:52.925Z,15.70
2022-07-27T22:13:55.594Z,15.90
2022-07-27T22:18:58.309Z,16.10
2022-07-27T22:24:05.798Z,16.10
2022-07-27T22:29:08.528Z,16.40
2022-07-27T22:34:11.725Z,16.30
2022-07-27T22:39:16.812Z,16.10
2022-07-27T22:44:20.485Z,15.90
2022-07-27T22:49:23.636Z,15.90
2022-07-27T22:54:27.648Z,15.60
2022-07-27T22:59:30.788Z,15.40
2022-07-27T23:04:33.493Z,15.30
2022-07-27T23:09:37.893Z,15.20
2022-07-27T23:14:40.660Z,15.20
2022-07-27T23:19:43.331Z,15.00
2022-07-27T23:24:47.334Z,15.00
2022-07-27T23:29:50.897Z,15.00
2022-07-27T23:34:53.576Z,15.00
2022-07-27T23:39:57.551Z,14.60
2022-07-27T23:45:00.232Z,14.50
2022-07-27T23:50:05.664Z,14.30
2022-07-27T23:55:10.143Z,14.20
